Terminal Aerodrome Forecast
Issued by NWS Binghamton, NY

Home | Current Version | Previous Version | Text Only | Print | Product List | Glossary On
Versions: 1 2 3 4 5 6 7 8 9 10 11 12 13 14 15 16 17 18 19 20 21 22
036
FTUS41 KBGM 261313 AAA
TAFAVP
TAF AMD
KAVP 261313Z 2613/2712 27007KT P6SM OVC025
      TEMPO 2613/2615 OVC009
     FM261600 29010G17KT P6SM BKN035
     FM262300 31009KT P6SM BKN060
     FM270600 30004KT P6SM BKN015=

USA.gov is the U.S. government's official web portal to all federal, state and local government web resources and services.